createdAt,value
2019-04-01T00:00:41.660Z,97990.81
2019-04-01T00:03:48.901Z,97992.17
2019-04-01T00:06:55.855Z,97991.41
2019-04-01T00:10:02.694Z,97989.70
2019-04-01T00:13:11.455Z,97983.42
2019-04-01T00:16:18.325Z,97987.61
2019-04-01T00:19:27.283Z,97985.11
2019-04-01T00:22:34.116Z,97994.45
2019-04-01T00:25:41.037Z,97991.85
2019-04-01T00:28:47.972Z,97988.20
2019-04-01T00:31:55.096Z,97988.59
2019-04-01T00:35:03.112Z,97981.86
2019-04-01T00:38:10.103Z,97994.63
2019-04-01T00:41:17.029Z,97987.77
2019-04-01T00:44:23.968Z,97998.38
2019-04-01T00:47:32.683Z,97997.56
2019-04-01T00:50:39.561Z,97996.72
2019-04-01T00:53:46.407Z,97995.03
2019-04-01T00:56:53.290Z,97998.84
2019-04-01T01:00:00.465Z,97996.75
2019-04-01T01:03:08.477Z,97989.27
2019-04-01T01:06:15.508Z,97993.82
2019-04-01T01:09:25.033Z,97995.53
2019-04-01T01:12:31.488Z,97994.69
2019-04-01T01:15:38.706Z,97995.56
2019-04-01T01:18:45.600Z,97996.84
2019-04-01T01:21:52.502Z,97990.52
2019-04-01T01:24:59.366Z,97997.67
2019-04-01T01:28:06.467Z,98005.34
2019-04-01T01:31:14.995Z,97990.94
2019-04-01T01:34:21.874Z,97993.08
2019-04-01T01:37:29.854Z,97991.79
2019-04-01T01:40:36.745Z,97993.49
2019-04-01T01:43:43.584Z,97998.56
2019-04-01T01:46:50.566Z,98002.37
2019-04-01T01:49:57.414Z,97993.50
2019-04-01T01:53:04.288Z,97999.03
2019-04-01T01:56:11.118Z,98000.30
2019-04-01T01:59:18.147Z,97988.44
2019-04-01T02:02:26.295Z,97985.94
2019-04-01T02:05:33.166Z,97989.29
2019-04-01T02:08:40.005Z,97994.81
2019-04-01T02:11:46.886Z,97981.69
2019-04-01T02:14:53.844Z,97979.16
2019-04-01T02:18:00.707Z,97979.59
2019-04-01T02:21:07.553Z,97984.64
2019-04-01T02:24:14.435Z,97982.53
2019-04-01T02:27:21.311Z,97980.42
2019-04-01T02:30:29.119Z,97977.47
2019-04-01T02:33:36.163Z,97982.55
2019-04-01T02:36:43.040Z,97985.45
2019-04-01T02:39:51.230Z,97982.52
2019-04-01T02:42:58.376Z,97977.47
2019-04-01T02:46:05.210Z,97983.38
2019-04-01T02:49:12.082Z,97975.73
2019-04-01T02:52:19.005Z,97982.44
2019-04-01T02:55:26.521Z,97973.15
2019-04-01T02:58:33.371Z,97978.70
2019-04-01T03:01:40.258Z,97977.39
2019-04-01T03:04:48.165Z,97974.91
2019-04-01T03:07:55.028Z,97984.59
2019-04-01T03:11:01.869Z,97974.82
2019-04-01T03:14:08.749Z,97975.94
2019-04-01T03:17:15.584Z,97978.08
2019-04-01T03:20:22.691Z,97978.91
2019-04-01T03:23:31.058Z,97978.77
2019-04-01T03:26:37.926Z,97981.48
2019-04-01T03:29:44.780Z,97979.37
2019-04-01T03:32:51.713Z,97981.09
2019-04-01T03:35:58.740Z,97985.64
2019-04-01T03:39:07.136Z,97984.25
2019-04-01T03:42:15.140Z,97986.84
2019-04-01T03:45:22.419Z,97987.44
2019-04-01T03:48:29.440Z,97987.75
2019-04-01T03:51:36.342Z,97988.53
2019-04-01T03:54:43.183Z,97996.48
2019-04-01T03:57:50.068Z,97984.78
2019-04-01T04:00:56.896Z,97991.31
2019-04-01T04:04:03.773Z,97994.75
2019-04-01T04:07:10.732Z,97988.95
2019-04-01T04:10:17.746Z,97996.41
2019-04-01T04:13:25.402Z,97994.97
2019-04-01T04:16:32.359Z,97990.89
2019-04-01T04:19:39.200Z,97990.22
2019-04-01T04:22:46.083Z,97993.77
2019-04-01T04:25:52.918Z,97988.34
2019-04-01T04:28:59.809Z,97993.50
2019-04-01T04:32:06.733Z,97989.88
2019-04-01T04:35:13.730Z,97991.23
2019-04-01T04:38:21.191Z,97985.30
2019-04-01T04:41:28.451Z,97987.91
2019-04-01T04:44:35.520Z,97983.23
2019-04-01T04:47:42.398Z,97982.30
2019-04-01T04:50:49.331Z,97984.52
2019-04-01T04:53:56.207Z,97984.91
2019-04-01T04:57:03.543Z,97990.91
2019-04-01T05:00:12.150Z,97984.59
2019-04-01T05:03:19.007Z,97988.20
2019-04-01T05:06:25.885Z,97986.67
2019-04-01T05:09:32.726Z,97991.81
2019-04-01T05:12:39.605Z,97986.86
2019-04-01T05:15:46.537Z,97991.83
2019-04-01T05:18:53.488Z,97992.18
2019-04-01T05:22:00.755Z,97998.95
2019-04-01T05:25:07.936Z,97997.57
2019-04-01T05:28:17.299Z,98002.55
2019-04-01T05:31:25.631Z,98006.41
2019-04-01T05:34:34.159Z,98010.84
2019-04-01T05:37:41.143Z,98004.59
2019-04-01T05:40:48.650Z,98000.28
2019-04-01T05:43:57.973Z,98003.52
2019-04-01T05:47:05.577Z,98009.03
2019-04-01T05:50:12.459Z,98006.44
2019-04-01T05:53:20.333Z,97998.95
2019-04-01T05:56:27.204Z,98004.84
2019-04-01T05:59:34.083Z,98005.71
2019-04-01T06:02:40.984Z,98006.16
2019-04-01T06:05:47.955Z,97997.73
2019-04-01T06:08:55.720Z,98000.70
2019-04-01T06:12:03.168Z,98011.68
2019-04-01T06:15:10.153Z,98006.20
2019-04-01T06:18:16.993Z,98010.88
2019-04-01T06:21:23.902Z,98009.16
2019-04-01T06:24:31.549Z,98006.63
2019-04-01T06:27:38.470Z,98001.98
2019-04-01T06:30:45.762Z,98005.78
2019-04-01T06:33:54.275Z,98012.11
2019-04-01T06:37:01.174Z,98006.17
2019-04-01T06:40:08.453Z,98009.95
2019-04-01T06:43:16.392Z,98010.33
2019-04-01T06:46:23.279Z,98009.44
2019-04-01T06:49:31.375Z,98008.98
2019-04-01T06:52:38.343Z,98006.41
2019-04-01T06:55:45.654Z,98012.70
2019-04-01T06:58:54.159Z,98005.07
2019-04-01T07:02:01.003Z,98000.37
2019-04-01T07:05:07.987Z,98001.56
2019-04-01T07:08:15.143Z,98006.13
2019-04-01T07:11:22.143Z,98006.07
2019-04-01T07:14:29.104Z,98000.92
2019-04-01T07:17:36.069Z,98005.98
2019-04-01T07:20:45.567Z,98005.02
2019-04-01T07:24:58.308Z,98005.08
2019-04-01T07:28:28.236Z,98002.43
2019-04-01T07:32:00.811Z,98004.55
2019-04-01T07:35:08.454Z,98008.41
2019-04-01T07:38:15.519Z,98008.14
2019-04-01T07:41:22.383Z,98011.02
2019-04-01T07:44:29.620Z,98010.14
2019-04-01T07:47:37.545Z,98005.61
2019-04-01T07:50:45.591Z,98011.95
2019-04-01T07:53:53.049Z,98011.93
2019-04-01T07:57:01.247Z,98009.38
2019-04-01T08:00:09.345Z,98003.98
2019-04-01T08:03:16.240Z,98006.39
2019-04-01T08:06:23.151Z,98005.09
2019-04-01T08:09:30.693Z,98000.44
2019-04-01T08:12:40.411Z,98008.41
2019-04-01T08:15:47.311Z,97998.63
2019-04-01T08:18:54.141Z,97996.54
2019-04-01T08:22:01.055Z,97995.33
2019-04-01T08:25:08.027Z,97989.28
2019-04-01T08:28:15.026Z,97995.77
2019-04-01T08:31:22.503Z,97993.52
2019-04-01T08:34:29.383Z,97990.83
2019-04-01T08:37:39.861Z,97987.19
2019-04-01T08:40:44.850Z,97985.52
2019-04-01T08:43:51.999Z,97986.34
2019-04-01T08:46:59.210Z,97988.86
2019-04-01T08:50:07.391Z,97984.61
2019-04-01T08:53:14.689Z,97988.13
2019-04-01T08:56:22.668Z,97989.06
2019-04-01T08:59:29.681Z,97990.14
2019-04-01T09:02:36.644Z,97992.36
2019-04-01T09:05:43.596Z,97994.70
2019-04-01T09:08:53.276Z,97991.44
2019-04-01T09:12:00.553Z,97986.86
2019-04-01T09:15:07.755Z,97993.03
2019-04-01T09:18:15.024Z,97980.49
2019-04-01T09:21:29.784Z,97985.48
2019-04-01T09:24:36.666Z,97979.67
2019-04-01T09:27:43.536Z,97983.58
2019-04-01T09:30:50.532Z,97972.16
2019-04-01T09:34:00.536Z,97970.49
2019-04-01T09:37:07.609Z,97963.31
2019-04-01T09:40:14.680Z,97964.14
2019-04-01T09:43:24.796Z,97957.66
2019-04-01T09:46:31.663Z,97955.80
2019-04-01T09:49:38.551Z,97956.28
2019-04-01T09:53:01.470Z,97958.58
2019-04-01T09:56:08.683Z,97957.67
2019-04-01T09:59:15.566Z,97951.42
2019-04-01T10:02:32.124Z,97945.19
2019-04-01T10:05:34.657Z,97939.12
2019-04-01T10:08:42.916Z,97939.22
2019-04-01T10:11:49.880Z,97933.10
2019-04-01T10:14:56.788Z,97927.59
2019-04-01T10:18:04.699Z,97931.52
2019-04-01T10:21:11.592Z,97918.66
2019-04-01T10:24:18.638Z,97918.44
2019-04-01T10:27:28.256Z,97915.88
2019-04-01T10:30:35.098Z,97907.48
2019-04-01T10:33:45.886Z,97916.28
2019-04-01T10:36:52.978Z,97907.52
2019-04-01T10:40:00.415Z,97901.53
2019-04-01T10:43:07.678Z,97899.84
2019-04-01T10:46:14.658Z,97896.02
2019-04-01T10:49:22.777Z,97892.91
2019-04-01T10:52:29.735Z,97894.75
2019-04-01T10:55:36.727Z,97890.11
2019-04-01T10:58:45.131Z,97883.08
2019-04-01T11:01:52.197Z,97884.94
2019-04-01T11:04:59.159Z,97880.93
2019-04-01T11:08:06.057Z,97883.15
2019-04-01T11:11:13.009Z,97871.39
2019-04-01T11:14:24.339Z,97880.25
2019-04-01T11:17:31.238Z,97873.22
2019-04-01T11:20:38.090Z,97874.53
2019-04-01T11:23:44.996Z,97873.70
2019-04-01T11:26:51.859Z,97873.66
2019-04-01T11:29:58.817Z,97873.34
2019-04-01T11:33:07.709Z,97865.37
2019-04-01T11:36:14.352Z,97870.91
2019-04-01T11:39:21.872Z,97868.02
2019-04-01T11:42:28.911Z,97859.72
2019-04-01T11:45:35.806Z,97853.94
2019-04-01T11:48:42.751Z,97850.06
2019-04-01T11:51:49.763Z,97837.19
2019-04-01T11:54:56.806Z,97845.53
2019-04-01T11:58:03.895Z,97842.10
2019-04-01T12:01:11.915Z,97838.77
2019-04-01T12:04:18.764Z,97834.06
2019-04-01T12:07:29.153Z,97827.75
2019-04-01T12:10:36.187Z,97821.67
2019-04-01T12:13:43.363Z,97822.01
2019-04-01T12:16:50.224Z,97803.67
2019-04-01T12:19:57.112Z,97806.34
2019-04-01T12:23:04.034Z,97801.22
2019-04-01T12:26:15.428Z,97792.58
2019-04-01T12:29:19.746Z,97788.78
2019-04-01T12:32:28.407Z,97799.89
2019-04-01T12:35:35.349Z,97788.66
2019-04-01T12:38:42.235Z,97782.86
2019-04-01T12:41:50.170Z,97775.78
2019-04-01T12:44:57.086Z,97774.50
2019-04-01T12:48:04.007Z,97771.98
2019-04-01T12:51:10.904Z,97762.99
2019-04-01T12:54:20.316Z,97761.68
2019-04-01T12:57:27.238Z,97753.64
2019-04-01T13:00:34.748Z,97750.48
2019-04-01T13:03:43.004Z,97744.64
2019-04-01T13:06:50.828Z,97740.62
2019-04-01T13:09:58.520Z,97739.52
2019-04-01T13:13:05.402Z,97740.48
2019-04-01T13:16:12.306Z,97736.16
2019-04-01T13:19:23.903Z,97729.98
2019-04-01T13:22:30.880Z,97723.88
2019-04-01T13:25:37.723Z,97718.73
2019-04-01T13:28:44.709Z,97720.14
2019-04-01T13:31:51.696Z,97710.80
2019-04-01T13:34:58.572Z,97712.81
2019-04-01T13:38:05.451Z,97710.28
2019-04-01T13:41:13.192Z,97705.88
2019-04-01T13:44:20.596Z,97707.72
2019-04-01T13:47:27.592Z,97697.34
2019-04-01T13:50:34.631Z,97697.49
2019-04-01T13:53:41.542Z,97698.76
2019-04-01T13:56:48.394Z,97693.47
2019-04-01T14:00:03.044Z,97687.86
2019-04-01T14:03:11.333Z,97682.42
2019-04-01T14:06:22.565Z,97680.26
2019-04-01T14:09:30.952Z,97675.87
2019-04-01T14:12:38.085Z,97673.84
2019-04-01T14:15:45.014Z,97666.55
2019-04-01T14:18:51.900Z,97664.66
2019-04-01T14:21:58.787Z,97655.90
2019-04-01T14:25:07.981Z,97652.64
2019-04-01T14:28:17.935Z,97648.84
2019-04-01T14:31:27.759Z,97648.02
2019-04-01T14:34:35.521Z,97641.09
2019-04-01T14:37:42.853Z,97643.41
2019-04-01T14:40:49.806Z,97636.73
2019-04-01T14:43:56.677Z,97637.32
2019-04-01T14:47:04.099Z,97627.72
2019-04-01T14:50:11.824Z,97628.11
2019-04-01T14:53:19.527Z,97628.34
2019-04-01T14:56:27.796Z,97618.47
2019-04-01T14:59:36.158Z,97617.94
2019-04-01T15:02:43.083Z,97617.59
2019-04-01T15:05:50.017Z,97610.81
2019-04-01T15:08:57.228Z,97614.19
2019-04-01T15:12:04.084Z,97615.50
2019-04-01T15:15:11.764Z,97609.33
2019-04-01T15:18:19.824Z,97599.69
2019-04-01T15:21:26.717Z,97590.75
2019-04-01T15:24:33.559Z,97596.88
2019-04-01T15:27:40.443Z,97590.47
2019-04-01T15:30:47.490Z,97588.41
2019-04-01T15:33:54.524Z,97586.17
2019-04-01T15:37:01.536Z,97584.21
2019-04-01T15:40:09.126Z,97582.45
2019-04-01T15:43:16.456Z,97574.73
2019-04-01T15:46:24.963Z,97566.56
2019-04-01T15:49:32.064Z,97568.45
2019-04-01T15:52:39.032Z,97572.50
2019-04-01T15:55:46.024Z,97566.50
2019-04-01T15:58:52.903Z,97567.36
2019-04-01T16:01:59.833Z,97567.27
2019-04-01T16:05:07.185Z,97568.09
2019-04-01T16:08:16.924Z,97568.59
2019-04-01T16:11:24.910Z,97569.24
2019-04-01T16:14:31.932Z,97559.08
2019-04-01T16:17:54.092Z,97568.73
2019-04-01T16:21:01.120Z,97565.48
2019-04-01T16:24:10.948Z,97561.02
2019-04-01T16:27:18.623Z,97567.22
2019-04-01T16:30:25.555Z,97561.98
2019-04-01T16:33:33.016Z,97563.82
2019-04-01T16:36:39.912Z,97564.28
2019-04-01T16:39:48.688Z,97563.17
2019-04-01T16:42:55.868Z,97568.02
2019-04-01T16:46:02.877Z,97561.30
2019-04-01T16:49:09.771Z,97567.16
2019-04-01T16:52:16.824Z,97566.64
2019-04-01T16:55:24.931Z,97560.54
2019-04-01T16:58:34.812Z,97563.95
2019-04-01T17:01:41.834Z,97563.41
2019-04-01T17:04:48.856Z,97562.60
2019-04-01T17:07:55.758Z,97567.17
2019-04-01T17:11:02.854Z,97562.68
2019-04-01T17:14:10.046Z,97567.45
2019-04-01T17:17:17.826Z,97567.09
2019-04-01T17:20:25.427Z,97569.13
2019-04-01T17:23:32.419Z,97566.51
2019-04-01T17:27:04.072Z,97571.88
2019-04-01T17:30:12.335Z,97560.67
2019-04-01T17:33:21.006Z,97557.88
2019-04-01T17:36:27.849Z,97558.67
2019-04-01T17:39:34.854Z,97558.36
2019-04-01T17:42:41.704Z,97558.25
2019-04-01T17:45:48.592Z,97560.80
2019-04-01T17:48:55.422Z,97564.41
2019-04-01T17:52:04.458Z,97565.84
2019-04-01T17:55:11.525Z,97563.79
2019-04-01T17:58:18.613Z,97557.98
2019-04-01T18:01:25.706Z,97564.99
2019-04-01T18:04:32.807Z,97567.16
2019-04-01T18:07:39.673Z,97566.66
2019-04-01T18:10:48.801Z,97578.61
2019-04-01T18:13:55.140Z,97572.80
2019-04-01T18:17:02.609Z,97572.49
2019-04-01T18:20:10.213Z,97582.30
2019-04-01T18:23:17.226Z,97581.34
2019-04-01T18:26:24.183Z,97575.23
2019-04-01T18:29:32.093Z,97579.92
2019-04-01T18:32:38.957Z,97581.91
2019-04-01T18:35:45.848Z,97582.23
2019-04-01T18:38:52.653Z,97576.73
2019-04-01T18:41:59.519Z,97579.16
2019-04-01T18:45:07.460Z,97582.80
2019-04-01T18:48:15.054Z,97580.94
2019-04-01T18:51:28.932Z,97581.54
2019-04-01T18:54:35.807Z,97578.20
2019-04-01T18:57:42.840Z,97574.86
2019-04-01T19:00:50.486Z,97565.88
2019-04-01T19:03:57.330Z,97571.11
2019-04-01T19:07:04.834Z,97564.41
2019-04-01T19:10:11.901Z,97569.99
2019-04-01T19:13:20.049Z,97569.83
2019-04-01T19:16:26.887Z,97564.92
2019-04-01T19:19:35.060Z,97567.52
2019-04-01T19:22:42.011Z,97562.93
2019-04-01T19:25:48.930Z,97560.95
2019-04-01T19:28:58.184Z,97562.63
2019-04-01T19:32:04.397Z,97566.60
2019-04-01T19:35:12.099Z,97569.00
2019-04-01T19:38:21.516Z,97566.27
2019-04-01T19:41:28.655Z,97573.39
2019-04-01T19:44:35.554Z,97559.80
2019-04-01T19:47:43.462Z,97568.48
2019-04-01T19:50:50.341Z,97562.93
2019-04-01T19:53:57.215Z,97562.09
2019-04-01T19:57:04.201Z,97562.89
2019-04-01T20:00:11.341Z,97562.95
2019-04-01T20:03:25.373Z,97562.23
2019-04-01T20:06:32.479Z,97555.47
2019-04-01T20:09:40.526Z,97558.67
2019-04-01T20:12:47.374Z,97559.02
2019-04-01T20:15:54.285Z,97557.08
2019-04-01T20:19:01.128Z,97551.05
2019-04-01T20:22:09.281Z,97547.66
2019-04-01T20:25:21.686Z,97551.41
2019-04-01T20:28:28.675Z,97541.81
2019-04-01T20:31:35.524Z,97544.41
2019-04-01T20:34:42.421Z,97541.67
2019-04-01T20:37:49.335Z,97538.52
2019-04-01T20:40:56.208Z,97534.13
2019-04-01T20:44:03.068Z,97524.19
2019-04-01T20:47:09.971Z,97519.84
2019-04-01T20:50:19.814Z,97516.00
2019-04-01T20:53:26.841Z,97508.37
2019-04-01T20:56:33.685Z,97511.50
2019-04-01T20:59:41.108Z,97510.94
2019-04-01T21:02:48.520Z,97502.91
2019-04-01T21:05:55.678Z,97500.02
2019-04-01T21:09:05.834Z,97496.97
2019-04-01T21:12:12.692Z,97494.95
2019-04-01T21:15:21.636Z,97493.48
2019-04-01T21:18:28.517Z,97489.83
2019-04-01T21:21:35.371Z,97490.02
2019-04-01T21:24:42.415Z,97484.84
2019-04-01T21:27:49.350Z,97488.16
2019-04-01T21:30:59.407Z,97485.35
2019-04-01T21:34:07.844Z,97484.29
2019-04-01T21:37:16.608Z,97473.80
2019-04-01T21:40:23.484Z,97475.33
2019-04-01T21:43:30.386Z,97466.60
2019-04-01T21:46:37.218Z,97470.32
2019-04-01T21:49:44.087Z,97469.59
2019-04-01T21:52:50.936Z,97460.82
2019-04-01T21:55:57.893Z,97460.69
2019-04-01T21:59:04.724Z,97450.20
2019-04-01T22:02:11.599Z,97444.20
2019-04-01T22:05:21.421Z,97447.13
2019-04-01T22:08:28.413Z,97446.11
2019-04-01T22:11:35.347Z,97442.41
2019-04-01T22:14:43.945Z,97431.11
2019-04-01T22:17:51.402Z,97430.66
2019-04-01T22:20:58.829Z,97426.92
2019-04-01T22:24:06.337Z,97424.91
2019-04-01T22:27:18.285Z,97426.90
2019-04-01T22:30:25.177Z,97422.41
2019-04-01T22:33:32.043Z,97418.78
2019-04-01T22:36:39.899Z,97416.84
2019-04-01T22:39:47.135Z,97413.42
2019-04-01T22:42:53.978Z,97408.19
2019-04-01T22:46:00.901Z,97403.92
2019-04-01T22:49:07.751Z,97405.33
2019-04-01T22:52:17.675Z,97399.80
2019-04-01T22:55:26.149Z,97399.05
2019-04-01T22:58:33.027Z,97396.37
2019-04-01T23:01:39.884Z,97393.64
2019-04-01T23:04:46.757Z,97396.31
2019-04-01T23:07:53.593Z,97386.78
2019-04-01T23:11:00.533Z,97380.92
2019-04-01T23:14:07.454Z,97380.83
2019-04-01T23:17:18.801Z,97378.13
2019-04-01T23:20:25.698Z,97370.33
2019-04-01T23:23:32.566Z,97361.52
2019-04-01T23:26:39.407Z,97355.44
2019-04-01T23:29:46.853Z,97351.43
2019-04-01T23:32:53.698Z,97353.41
2019-04-01T23:36:01.626Z,97353.24
2019-04-01T23:39:09.690Z,97352.17
2019-04-01T23:42:16.663Z,97347.29
2019-04-01T23:45:23.513Z,97350.41
2019-04-01T23:48:30.394Z,97340.41
2019-04-01T23:51:37.224Z,97342.56
2019-04-01T23:54:44.292Z,97336.16
2019-04-01T23:57:51.143Z,97334.80
